weather station
Area: 10056 km2
The highest point: Plechý (1378 m.s.l.)
Total stations: 28
Stations online: 28
Stations offline: 0
Current weather
2°C

Meteorological map - weather stations in Jihočeský

. The meteorological maps show weather information from WARIO weather stations

Weather stations Jihočeský

 UpdatesNameStatusTemperatureHumidityWind speedWind direction
13.4.2021 19:05Bělčice2.4 °C71.9 %1.8 m/s N
13.4.2021 19:05Borovany0.4 °C87.7 %2.1 m/s W
13.4.2021 19:05Třeboň2.3 °C87.8 %1.0 m/s NW
13.4.2021 19:05Litvínovice - Mokré0.8 °C97.2 %3.0 m/s NW
13.4.2021 19:05Chrášťovice °C %0.7 m/s S
13.4.2021 19:04České Budějovice - Haklovy Dvory1.8 °C92.4 %1.7 m/s SW
13.4.2021 19:04Jindřichův Hradec4.2 °C67.8 %0.0 m/s NE
13.4.2021 19:05Kadov2.3 °C75.4 %0.7 m/s E
13.4.2021 19:05České Budějovice °C %1.7 m/s NW
13.4.2021 19:05Lipno nad Vltavou-3.6 °C99.0 %3.2 m/s SW
13.4.2021 19:05Vyšší Brod-0.2 °C96.1 %0.7 m/s W
13.4.2021 19:04Jindřichův Hradec2.1 °C64.6 %1.7 m/s NE
13.4.2021 19:04Písek - Vnitřní Město4.0 °C57.8 %2.0 m/s SW
13.4.2021 19:05Dolní Vltavice-0.6 °C88.7 %0.9 m/s E
13.4.2021 19:04Hluboká nad Vltavou - Zámostí1.9 °C100.0 %0.0 m/s NW
13.4.2021 19:04Hluboká nad Vltavou3.2 °C81.3 %0.9 m/s W
13.4.2021 19:05Písek - Budějovické Předměstí3.3 °C66.2 %1.8 m/s SW
13.4.2021 19:04Písek - Pražské Předměstí3.8 °C59.9 %0.0 m/s SW
13.4.2021 19:04Písek - Václavské Předměstí3.5 °C59.8 %2.6 m/s NW
13.4.2021 19:04Radošovice2.0 °C73.6 %0.0 m/s NW
13.4.2021 19:05Rataje3.0 °C59.7 %1.6 m/s N
13.4.2021 19:05Sedlice2.3 °C66.9 %2.0 m/s N
13.4.2021 19:05Sezimovo Ústí3.2 °C54.7 %2.2 m/s NW
13.4.2021 19:05Stachy-1.5 °C90.5 %0.7 m/s NW
13.4.2021 19:04Strakonice °C %0.0 m/s E
13.4.2021 19:05Novosedly1.3 °C87.8 %0.0 m/s SW
13.4.2021 19:05Veselí nad Lužnicí - Žíšov3.2 °C63.0 %0.0 m/s W
13.4.2021 19:05Milevsko3.2 °C65.0 %1.7 m/s E
Email notifications
Enter your email address to subscribe to notifications about news at warioweather.com. Your email address will not be used for any purpose other than sending these emails and will not be provided to any third party. The subscription can be ended at any time.
All data are only indicative. The portal administrator has no responsibility for potentially incorrect data and related consequences. Publishing or further sharing of content from www.warioweather.com is only allowed with written consent from WANET s.r.o.